Woodhaven, Michigan
Current Conditions -  °F | °C
As of 6:54 PM on Monday 20 Oct 2014 (Local Time) from KONZ Reporting Station
Overcast Overcast  
Wind Chill: 55°   Ceiling: 3400
Heat Index: 55°   Visibility: 10mi
Dew Point: 48°   Wind: 7mph
Humidity: 77%   Direction: 240°WSW
Pressure: 29.81"   Gusts: NA
Location:  42.14°N, 83.24°W
Report Text: KONZ 202254Z AUTO 24006KT 10SM BKN034 OVC060 13/09 A2981 RMK AO2
Loading
Personal Weather Stations






























Interactive Weather Map New forecast layout! Learn more

10-Day Weather Forecast

Advertisements
Track Severe Weather on mobile